createdAt,value
2023-05-24T00:00:37.846Z,6.00
2023-05-24T00:03:25.079Z,7.60
2023-05-24T00:05:53.518Z,7.40
2023-05-24T00:08:21.705Z,4.80
2023-05-24T00:10:49.775Z,5.50
2023-05-24T00:13:18.287Z,9.90
2023-05-24T00:15:46.302Z,6.00
2023-05-24T00:18:14.448Z,5.80
2023-05-24T00:20:42.877Z,4.90
2023-05-24T00:23:11.384Z,4.90
2023-05-24T00:25:39.587Z,5.50
2023-05-24T00:28:07.793Z,6.20
2023-05-24T00:30:36.392Z,7.60
2023-05-24T00:33:04.555Z,6.60
2023-05-24T00:35:32.719Z,5.90
2023-05-24T00:38:00.923Z,5.90
2023-05-24T00:40:28.982Z,7.10
2023-05-24T00:42:57.055Z,6.50
2023-05-24T00:45:25.069Z,6.40
2023-05-24T00:47:53.212Z,6.80
2023-05-24T00:50:22.015Z,6.20
2023-05-24T00:52:51.573Z,5.80
2023-05-24T00:55:20.918Z,7.00
2023-05-24T00:57:52.386Z,5.60
2023-05-24T01:00:20.895Z,6.30
2023-05-24T01:02:51.378Z,4.60
2023-05-24T01:05:19.975Z,7.00
2023-05-24T01:08:13.157Z,5.70
2023-05-24T01:11:04.598Z,6.90
2023-05-24T01:13:55.079Z,6.30
2023-05-24T01:16:31.867Z,5.60
2023-05-24T01:19:06.125Z,8.20
2023-05-24T01:22:22.315Z,5.30
2023-05-24T01:25:04.295Z,8.10
2023-05-24T01:27:34.605Z,4.80
2023-05-24T01:30:04.341Z,6.60
2023-05-24T01:32:33.423Z,5.10
2023-05-24T01:35:01.453Z,4.20
2023-05-24T01:37:29.554Z,7.30
2023-05-24T01:39:58.271Z,6.30
2023-05-24T01:42:37.991Z,8.40
2023-05-24T01:45:25.446Z,5.70
2023-05-24T01:48:18.923Z,6.30
2023-05-24T01:50:52.903Z,5.30
2023-05-24T01:53:26.442Z,6.10
2023-05-24T01:55:59.073Z,6.00
2023-05-24T01:58:28.569Z,8.10
2023-05-24T02:00:57.979Z,5.50
2023-05-24T02:03:26.289Z,5.60
2023-05-24T02:05:54.400Z,5.00
2023-05-24T02:08:23.509Z,6.40
2023-05-24T02:10:53.065Z,5.50
2023-05-24T02:13:21.555Z,6.50
2023-05-24T02:15:50.188Z,7.10
2023-05-24T02:18:18.792Z,6.30
2023-05-24T02:20:47.191Z,8.30
2023-05-24T02:23:15.387Z,6.10
2023-05-24T02:25:43.526Z,6.60
2023-05-24T02:28:11.491Z,8.60
2023-05-24T02:30:40.040Z,4.60
2023-05-24T02:33:08.956Z,6.90
2023-05-24T02:35:37.037Z,7.10
2023-05-24T02:38:06.656Z,9.80
2023-05-24T02:40:35.302Z,5.70
2023-05-24T02:43:03.523Z,7.00
2023-05-24T02:45:31.551Z,4.70
2023-05-24T02:48:00.073Z,7.20
2023-05-24T02:50:28.217Z,5.50
2023-05-24T02:52:56.498Z,7.50
2023-05-24T02:55:24.944Z,8.70
2023-05-24T02:57:54.011Z,8.60
2023-05-24T03:00:22.193Z,7.20
2023-05-24T03:02:51.241Z,6.90
2023-05-24T03:05:21.246Z,6.20
2023-05-24T03:07:49.364Z,6.40
2023-05-24T03:10:17.504Z,8.80
2023-05-24T03:12:45.713Z,12.60
2023-05-24T03:15:13.689Z,5.40
2023-05-24T03:17:43.354Z,6.20
2023-05-24T03:20:13.145Z,5.50
2023-05-24T03:22:41.455Z,7.20
2023-05-24T03:25:10.020Z,9.20
2023-05-24T03:27:39.187Z,6.00
2023-05-24T03:30:08.015Z,5.20
2023-05-24T03:32:41.540Z,6.80
2023-05-24T03:35:12.136Z,6.30
2023-05-24T03:37:40.236Z,5.70
2023-05-24T03:40:08.972Z,6.50
2023-05-24T03:42:55.514Z,4.80
2023-05-24T03:45:39.221Z,5.30
2023-05-24T03:48:08.465Z,7.80
2023-05-24T03:50:36.562Z,6.30
2023-05-24T03:53:04.884Z,5.50
2023-05-24T03:55:33.063Z,5.70
2023-05-24T03:58:01.773Z,9.90
2023-05-24T04:00:29.964Z,5.70
2023-05-24T04:02:58.199Z,8.20
2023-05-24T04:05:29.711Z,6.60
2023-05-24T04:07:57.964Z,6.50
2023-05-24T04:10:26.257Z,10.90
2023-05-24T04:12:57.170Z,9.50
2023-05-24T04:15:25.638Z,5.10
2023-05-24T04:17:55.271Z,7.80
2023-05-24T04:20:26.279Z,5.30
2023-05-24T04:22:56.217Z,9.20
2023-05-24T04:25:25.112Z,8.20
2023-05-24T04:27:56.015Z,5.40
2023-05-24T04:30:29.824Z,5.10
2023-05-24T04:32:58.470Z,7.80
2023-05-24T04:35:26.655Z,7.10
2023-05-24T04:37:57.367Z,5.00
2023-05-24T04:40:26.093Z,6.40
2023-05-24T04:42:54.108Z,8.20
2023-05-24T04:45:22.359Z,6.20
2023-05-24T04:47:50.577Z,8.30
2023-05-24T04:50:18.811Z,7.40
2023-05-24T04:52:47.417Z,9.20
2023-05-24T04:55:18.285Z,10.40
2023-05-24T04:57:46.416Z,6.80
2023-05-24T05:00:15.472Z,5.90
2023-05-24T05:02:45.045Z,8.20
2023-05-24T05:05:13.483Z,6.40
2023-05-24T05:07:41.776Z,6.00
2023-05-24T05:10:09.859Z,8.30
2023-05-24T05:12:38.909Z,6.40
2023-05-24T05:15:08.123Z,7.40
2023-05-24T05:17:36.679Z,8.10
2023-05-24T05:20:08.041Z,9.40
2023-05-24T05:22:36.166Z,7.70
2023-05-24T05:25:05.765Z,8.00
2023-05-24T05:27:33.897Z,8.80
2023-05-24T05:30:02.011Z,5.40
2023-05-24T05:32:31.649Z,5.30
2023-05-24T05:35:00.080Z,8.50
2023-05-24T05:37:28.341Z,6.70
2023-05-24T05:39:56.387Z,13.90
2023-05-24T05:42:24.698Z,10.00
2023-05-24T05:44:53.506Z,10.00
2023-05-24T05:47:21.631Z,8.80
2023-05-24T05:49:50.481Z,7.40
2023-05-24T05:52:19.342Z,7.20
2023-05-24T05:54:50.084Z,8.00
2023-05-24T05:57:27.599Z,4.20
2023-05-24T05:59:56.517Z,11.20
2023-05-24T06:02:25.705Z,13.20
2023-05-24T06:04:54.552Z,10.50
2023-05-24T06:07:22.714Z,7.50
2023-05-24T06:09:51.236Z,7.20
2023-05-24T06:12:21.000Z,6.70
2023-05-24T06:14:50.794Z,6.60
2023-05-24T06:17:19.073Z,6.50
2023-05-24T06:19:47.457Z,9.90
2023-05-24T06:22:17.816Z,11.10
2023-05-24T06:24:49.582Z,10.00
2023-05-24T06:27:17.955Z,10.80
2023-05-24T06:29:46.452Z,11.60
2023-05-24T06:32:16.192Z,9.70
2023-05-24T06:34:44.586Z,16.00
2023-05-24T06:37:25.209Z,9.20
2023-05-24T06:39:55.470Z,11.50
2023-05-24T06:42:23.791Z,5.00
2023-05-24T06:44:52.960Z,7.00
2023-05-24T06:47:24.819Z,8.10
2023-05-24T06:49:53.854Z,9.20
2023-05-24T06:52:22.926Z,6.70
2023-05-24T06:54:53.889Z,9.20
2023-05-24T06:57:23.073Z,7.10
2023-05-24T07:00:09.407Z,7.60
2023-05-24T07:02:39.142Z,8.50
2023-05-24T07:05:14.744Z,5.10
2023-05-24T07:07:44.237Z,9.50
2023-05-24T07:10:13.738Z,9.00
2023-05-24T07:12:42.297Z,7.30
2023-05-24T07:15:11.704Z,8.70
2023-05-24T07:17:41.083Z,10.50
2023-05-24T07:20:13.578Z,10.30
2023-05-24T07:22:44.152Z,6.20
2023-05-24T07:25:14.671Z,8.60
2023-05-24T07:27:43.474Z,7.60
2023-05-24T07:30:31.152Z,8.30
2023-05-24T07:33:05.078Z,5.60
2023-05-24T07:35:34.118Z,10.10
2023-05-24T07:38:03.134Z,12.90
2023-05-24T07:40:33.570Z,15.80
2023-05-24T07:43:04.208Z,12.80
2023-05-24T07:45:37.195Z,14.40
2023-05-24T07:48:06.894Z,16.60
2023-05-24T07:50:36.301Z,18.40
2023-05-24T07:53:08.178Z,18.10
2023-05-24T07:55:36.643Z,23.30
2023-05-24T07:58:05.121Z,22.00
2023-05-24T08:00:35.989Z,19.50
2023-05-24T08:03:09.657Z,13.10
2023-05-24T08:05:43.792Z,17.30
2023-05-24T08:08:13.273Z,20.50
2023-05-24T08:10:44.962Z,18.80
2023-05-24T08:13:13.656Z,20.30
2023-05-24T08:15:43.767Z,17.90
2023-05-24T08:18:12.675Z,15.00
2023-05-24T08:20:41.736Z,18.90
2023-05-24T08:23:10.611Z,12.80
2023-05-24T08:25:41.400Z,12.50
2023-05-24T08:28:11.658Z,13.60
2023-05-24T08:30:40.844Z,11.70
2023-05-24T08:33:10.317Z,14.80
2023-05-24T08:35:40.227Z,9.80
2023-05-24T08:38:21.661Z,10.00
2023-05-24T08:40:52.522Z,12.70
2023-05-24T08:43:25.606Z,12.30
2023-05-24T08:45:58.207Z,8.70
2023-05-24T08:48:28.625Z,7.40
2023-05-24T08:51:01.826Z,11.30
2023-05-24T08:53:37.858Z,8.50
2023-05-24T08:56:11.901Z,22.00
2023-05-24T08:58:48.162Z,7.70
2023-05-24T09:01:27.756Z,11.40
2023-05-24T09:04:03.962Z,8.00
2023-05-24T09:06:33.954Z,10.20
2023-05-24T09:09:05.604Z,10.10
2023-05-24T09:11:36.877Z,14.30
2023-05-24T09:14:10.685Z,16.60
2023-05-24T09:16:41.192Z,9.50
2023-05-24T09:19:11.051Z,7.10
2023-05-24T09:21:45.546Z,10.70
2023-05-24T09:24:14.325Z,9.80
2023-05-24T09:26:42.700Z,12.40
2023-05-24T09:33:31.964Z,10.60
2023-05-24T09:36:13.988Z,11.80
2023-05-24T09:38:44.079Z,13.00
2023-05-24T09:41:15.292Z,9.70
2023-05-24T09:43:50.788Z,9.80
2023-05-24T09:46:20.267Z,12.10
2023-05-24T09:49:00.692Z,10.60
2023-05-24T09:51:31.728Z,12.20
2023-05-24T09:54:03.529Z,12.80
2023-05-24T09:56:35.768Z,15.20
2023-05-24T09:59:11.068Z,7.30
2023-05-24T10:01:40.287Z,10.80
2023-05-24T10:04:10.541Z,7.00
2023-05-24T10:06:39.446Z,10.20
2023-05-24T10:09:10.632Z,6.00
2023-05-24T10:11:40.113Z,4.70
2023-05-24T10:14:13.220Z,6.90
2023-05-24T10:16:42.634Z,10.00
2023-05-24T10:19:14.512Z,7.10
2023-05-24T10:21:53.169Z,7.40
2023-05-24T10:24:27.141Z,7.80
2023-05-24T10:27:06.657Z,7.30
2023-05-24T10:29:59.700Z,6.60
2023-05-24T10:32:32.477Z,6.90
2023-05-24T10:35:01.998Z,4.90
2023-05-24T10:37:34.680Z,9.40
2023-05-24T10:40:05.625Z,4.20
2023-05-24T10:42:36.623Z,5.10
2023-05-24T10:45:33.794Z,5.40
2023-05-24T10:48:21.463Z,6.60
2023-05-24T10:50:50.527Z,6.90
2023-05-24T10:53:20.975Z,8.50
2023-05-24T10:55:56.546Z,8.00
2023-05-24T10:58:50.204Z,9.50
2023-05-24T11:01:34.344Z,10.60
2023-05-24T11:04:26.725Z,9.50
2023-05-24T11:07:01.837Z,6.50
2023-05-24T11:09:32.177Z,6.70
2023-05-24T11:12:09.044Z,5.90
2023-05-24T11:14:43.089Z,6.50
2023-05-24T11:17:11.715Z,7.20
2023-05-24T11:19:48.251Z,8.60
2023-05-24T11:22:19.066Z,7.70
2023-05-24T11:24:52.701Z,3.70
2023-05-24T11:27:21.828Z,4.60
2023-05-24T11:29:53.381Z,9.80
2023-05-24T11:32:24.179Z,5.90
2023-05-24T11:34:52.794Z,5.60
2023-05-24T11:37:31.581Z,3.30
2023-05-24T11:40:10.864Z,4.90
2023-05-24T11:42:39.544Z,4.40
2023-05-24T11:45:10.443Z,5.00
2023-05-24T11:47:40.183Z,4.20
2023-05-24T11:50:09.461Z,4.30
2023-05-24T11:52:45.252Z,7.20
2023-05-24T11:55:25.003Z,6.30
2023-05-24T11:58:00.360Z,5.20
2023-05-24T12:00:29.819Z,5.00
2023-05-24T12:03:08.852Z,4.00
2023-05-24T12:05:42.706Z,5.20
2023-05-24T12:08:22.627Z,7.20
2023-05-24T12:11:20.520Z,7.40
2023-05-24T12:13:56.525Z,6.60
2023-05-24T12:16:40.193Z,7.70
2023-05-24T12:19:32.458Z,9.60
2023-05-24T12:22:09.221Z,5.00
2023-05-24T12:24:38.052Z,5.70
2023-05-24T12:27:13.080Z,5.90
2023-05-24T12:29:45.028Z,7.00
2023-05-24T12:32:18.257Z,9.30
2023-05-24T12:34:52.879Z,5.60
2023-05-24T12:37:21.778Z,10.50
2023-05-24T12:39:51.751Z,6.00
2023-05-24T12:42:24.153Z,8.90
2023-05-24T12:44:55.848Z,8.30
2023-05-24T12:47:24.371Z,7.00
2023-05-24T12:49:53.318Z,11.80
2023-05-24T12:52:24.982Z,11.20
2023-05-24T12:55:00.413Z,8.90
2023-05-24T12:57:35.941Z,7.50
2023-05-24T13:00:07.079Z,7.60
2023-05-24T13:02:38.107Z,7.30
2023-05-24T13:05:09.634Z,7.60
2023-05-24T13:07:39.552Z,6.30
2023-05-24T13:10:08.747Z,8.30
2023-05-24T13:12:37.448Z,10.60
2023-05-24T13:15:08.766Z,6.90
2023-05-24T13:17:37.122Z,8.90
2023-05-24T13:20:08.497Z,9.40
2023-05-24T13:22:39.630Z,9.40
2023-05-24T13:25:12.353Z,9.10
2023-05-24T13:27:41.131Z,11.20
2023-05-24T13:30:09.894Z,9.70
2023-05-24T13:32:40.442Z,9.20
2023-05-24T13:35:11.962Z,9.40
2023-05-24T13:37:41.111Z,9.50
2023-05-24T13:40:12.354Z,9.90
2023-05-24T13:42:40.712Z,10.30
2023-05-24T13:45:11.901Z,12.40
2023-05-24T13:47:41.049Z,14.70
2023-05-24T13:50:10.420Z,13.80
2023-05-24T13:52:38.688Z,11.10
2023-05-24T13:55:07.769Z,13.80
2023-05-24T13:57:50.395Z,15.70
2023-05-24T14:00:20.344Z,10.20
2023-05-24T14:02:49.459Z,8.90
2023-05-24T14:07:52.059Z,14.30
2023-05-24T14:10:24.276Z,11.00
2023-05-24T14:13:07.949Z,10.80
2023-05-24T14:15:41.782Z,10.30
2023-05-24T14:18:10.227Z,10.10
2023-05-24T14:20:40.512Z,9.40
2023-05-24T14:23:10.287Z,12.80
2023-05-24T14:25:38.624Z,8.40
2023-05-24T14:28:08.622Z,7.60
2023-05-24T14:30:38.188Z,7.60
2023-05-24T14:33:09.186Z,8.30
2023-05-24T14:35:40.249Z,9.60
2023-05-24T14:38:10.787Z,5.30
2023-05-24T14:40:40.737Z,6.40
2023-05-24T14:43:14.590Z,13.80
2023-05-24T14:45:46.048Z,5.90
2023-05-24T14:48:19.763Z,4.90
2023-05-24T14:50:49.898Z,4.90
2023-05-24T14:53:19.865Z,4.40
2023-05-24T14:55:50.986Z,5.50
2023-05-24T14:58:19.297Z,6.90
2023-05-24T15:00:48.203Z,6.70
2023-05-24T15:03:16.725Z,5.30
2023-05-24T15:05:45.623Z,6.60
2023-05-24T15:08:13.983Z,7.90
2023-05-24T15:10:45.085Z,5.60
2023-05-24T15:13:14.021Z,8.40
2023-05-24T15:15:42.399Z,6.50
2023-05-24T15:18:13.392Z,6.70
2023-05-24T15:20:41.946Z,9.10
2023-05-24T15:23:11.178Z,8.20
2023-05-24T15:25:39.625Z,6.90
2023-05-24T15:28:07.951Z,7.80
2023-05-24T15:30:37.006Z,5.20
2023-05-24T15:33:05.155Z,6.60
2023-05-24T15:35:33.875Z,7.10
2023-05-24T15:38:02.180Z,8.20
2023-05-24T15:40:30.691Z,7.10
2023-05-24T15:42:59.536Z,8.10
2023-05-24T15:45:27.802Z,8.60
2023-05-24T15:47:56.162Z,12.00
2023-05-24T15:50:42.629Z,8.30
2023-05-24T15:53:12.623Z,9.50
2023-05-24T15:55:40.856Z,7.10
2023-05-24T15:58:09.142Z,7.70
2023-05-24T16:00:37.394Z,6.60
2023-05-24T16:03:06.620Z,7.80
2023-05-24T16:05:35.085Z,7.50
2023-05-24T16:08:03.918Z,7.00
2023-05-24T16:10:32.080Z,6.30
2023-05-24T16:13:00.432Z,9.40
2023-05-24T16:15:30.234Z,8.00
2023-05-24T16:17:58.442Z,8.50
2023-05-24T16:20:26.594Z,7.00
2023-05-24T16:22:54.963Z,8.90
2023-05-24T16:25:23.184Z,8.20
2023-05-24T16:27:52.190Z,10.80
2023-05-24T16:30:20.445Z,8.40
2023-05-24T16:32:48.821Z,11.00
2023-05-24T16:35:16.914Z,7.40
2023-05-24T16:37:45.076Z,7.80
2023-05-24T16:40:13.460Z,8.10
2023-05-24T16:42:41.629Z,12.10
2023-05-24T16:45:09.973Z,11.50
2023-05-24T16:47:38.326Z,8.10
2023-05-24T16:50:07.657Z,10.80
2023-05-24T16:52:36.192Z,13.40
2023-05-24T16:55:04.841Z,9.40
2023-05-24T16:57:33.058Z,11.50
2023-05-24T17:00:01.420Z,9.00
2023-05-24T17:02:29.958Z,13.40
2023-05-24T17:04:58.222Z,9.70
2023-05-24T17:07:26.552Z,10.30
2023-05-24T17:09:54.795Z,9.00
2023-05-24T17:12:23.146Z,12.70
2023-05-24T17:14:51.267Z,9.00
2023-05-24T17:17:19.385Z,11.30
2023-05-24T17:19:47.630Z,10.60
2023-05-24T17:22:16.079Z,9.30
2023-05-24T17:24:44.218Z,12.50
2023-05-24T17:27:12.381Z,8.90
2023-05-24T17:29:40.504Z,11.40
2023-05-24T17:32:08.707Z,8.80
2023-05-24T17:34:37.967Z,15.20
2023-05-24T17:37:06.429Z,11.80
2023-05-24T17:39:34.518Z,14.30
2023-05-24T17:42:03.028Z,8.30
2023-05-24T17:44:31.509Z,11.80
2023-05-24T17:46:59.905Z,10.20
2023-05-24T17:49:32.534Z,11.60
2023-05-24T17:52:01.255Z,13.20
2023-05-24T17:54:29.868Z,10.00
2023-05-24T17:56:58.035Z,9.80
2023-05-24T17:59:26.077Z,8.00
2023-05-24T18:01:54.235Z,7.50
2023-05-24T18:04:22.441Z,8.40
2023-05-24T18:06:50.571Z,11.70
2023-05-24T18:09:18.823Z,8.90
2023-05-24T18:11:47.007Z,10.60
2023-05-24T18:14:15.195Z,12.10
2023-05-24T18:16:43.468Z,8.50
2023-05-24T18:19:11.708Z,10.60
2023-05-24T18:21:41.148Z,11.40
2023-05-24T18:24:09.349Z,9.70
2023-05-24T18:26:37.664Z,12.40
2023-05-24T18:29:05.963Z,10.00
2023-05-24T18:31:33.973Z,8.70
2023-05-24T18:34:03.026Z,14.60
2023-05-24T18:36:33.205Z,11.60
2023-05-24T18:39:01.327Z,9.60
2023-05-24T18:41:29.565Z,11.20
2023-05-24T18:43:57.931Z,12.70
2023-05-24T18:46:26.242Z,19.50
2023-05-24T18:48:55.001Z,10.80
2023-05-24T18:51:23.285Z,16.00
2023-05-24T18:53:51.939Z,13.20
2023-05-24T18:56:20.024Z,13.00
2023-05-24T18:58:49.905Z,14.90
2023-05-24T19:01:18.912Z,11.90
2023-05-24T19:03:47.223Z,9.70
2023-05-24T19:06:16.348Z,13.30
2023-05-24T19:08:44.435Z,13.10
2023-05-24T19:11:12.717Z,11.10
2023-05-24T19:13:41.636Z,11.90
2023-05-24T19:16:10.364Z,17.90
2023-05-24T19:18:38.484Z,13.60
2023-05-24T19:21:06.602Z,12.60
2023-05-24T19:23:34.830Z,11.60
2023-05-24T19:26:03.596Z,12.20
2023-05-24T19:28:32.161Z,14.50
2023-05-24T19:31:02.425Z,12.10
2023-05-24T19:33:30.519Z,13.80
2023-05-24T19:35:58.773Z,12.50
2023-05-24T19:38:26.799Z,13.30
2023-05-24T19:40:54.939Z,11.70
2023-05-24T19:43:22.902Z,16.60
2023-05-24T19:45:51.893Z,13.60
2023-05-24T19:48:20.821Z,12.10
2023-05-24T19:50:49.195Z,12.00
2023-05-24T19:53:17.266Z,12.50
2023-05-24T19:55:45.536Z,12.80
2023-05-24T19:58:13.714Z,14.70
2023-05-24T20:00:41.740Z,16.70
2023-05-24T20:03:10.953Z,13.70
2023-05-24T20:05:47.921Z,12.30
2023-05-24T20:08:17.734Z,14.70
2023-05-24T20:10:51.037Z,15.40
2023-05-24T20:13:19.056Z,15.40
2023-05-24T20:15:47.278Z,15.20
2023-05-24T20:18:15.347Z,13.20
2023-05-24T20:20:43.340Z,11.40
2023-05-24T20:23:11.598Z,13.60
2023-05-24T20:25:39.558Z,15.90
2023-05-24T20:28:15.428Z,13.80
2023-05-24T20:30:50.390Z,12.60
2023-05-24T20:33:18.563Z,12.10
2023-05-24T20:35:47.053Z,15.20
2023-05-24T20:38:15.284Z,14.00
2023-05-24T20:40:43.389Z,12.90
2023-05-24T20:43:11.434Z,16.00
2023-05-24T20:45:39.573Z,14.60
2023-05-24T20:48:07.703Z,13.10
2023-05-24T20:50:36.455Z,14.00
2023-05-24T20:53:04.420Z,14.40
2023-05-24T20:55:32.490Z,15.50
2023-05-24T20:58:00.501Z,12.70
2023-05-24T21:00:28.624Z,11.60
2023-05-24T21:02:56.873Z,17.50
2023-05-24T21:05:25.149Z,13.70
2023-05-24T21:07:53.127Z,10.80
2023-05-24T21:10:21.182Z,13.60
2023-05-24T21:12:49.262Z,13.40
2023-05-24T21:15:17.226Z,11.70
2023-05-24T21:17:45.412Z,15.70
2023-05-24T21:20:13.572Z,10.30
2023-05-24T21:22:41.797Z,11.40
2023-05-24T21:25:09.917Z,13.00
2023-05-24T21:27:37.915Z,10.80
2023-05-24T21:30:06.860Z,10.50
2023-05-24T21:32:34.931Z,13.10
2023-05-24T21:35:03.009Z,13.90
2023-05-24T21:37:31.138Z,11.80
2023-05-24T21:39:59.247Z,13.30
2023-05-24T21:42:27.214Z,10.90
2023-05-24T21:44:55.229Z,13.20
2023-05-24T21:47:23.333Z,14.80
2023-05-24T21:49:52.067Z,10.30
2023-05-24T21:52:20.229Z,11.60
2023-05-24T21:54:48.312Z,11.20
2023-05-24T21:57:16.414Z,11.40
2023-05-24T21:59:44.519Z,12.30
2023-05-24T22:02:14.398Z,13.00
2023-05-24T22:04:42.637Z,9.70
2023-05-24T22:07:10.852Z,12.10
2023-05-24T22:09:38.883Z,10.70
2023-05-24T22:12:07.029Z,15.60
2023-05-24T22:14:35.113Z,8.80
2023-05-24T22:17:03.248Z,10.20
2023-05-24T22:19:39.475Z,8.10
2023-05-24T22:22:09.972Z,13.20
2023-05-24T22:24:38.040Z,12.00
2023-05-24T22:27:09.774Z,11.50
2023-05-24T22:29:37.966Z,9.10
2023-05-24T22:32:06.357Z,11.10
2023-05-24T22:34:34.629Z,10.70
2023-05-24T22:37:02.823Z,9.20
2023-05-24T22:39:31.094Z,11.10
2023-05-24T22:41:59.068Z,11.80
2023-05-24T22:44:27.251Z,10.80
2023-05-24T22:46:56.425Z,11.60
2023-05-24T22:49:24.586Z,9.60
2023-05-24T22:51:55.575Z,11.50
2023-05-24T22:54:23.602Z,10.80
2023-05-24T22:56:51.660Z,9.80
2023-05-24T22:59:19.676Z,9.40
2023-05-24T23:01:47.864Z,12.10
2023-05-24T23:06:47.635Z,8.70
2023-05-24T23:09:15.676Z,9.10
2023-05-24T23:11:44.542Z,15.40
2023-05-24T23:14:12.589Z,9.10
2023-05-24T23:16:45.675Z,7.80
2023-05-24T23:19:18.352Z,12.30
2023-05-24T23:21:46.915Z,12.90
2023-05-24T23:24:15.962Z,9.40
2023-05-24T23:26:44.291Z,8.00
2023-05-24T23:29:12.301Z,12.70
2023-05-24T23:31:40.380Z,9.30
2023-05-24T23:34:08.552Z,8.00
2023-05-24T23:36:36.580Z,8.20
2023-05-24T23:39:04.575Z,10.40
2023-05-24T23:41:32.603Z,12.50
2023-05-24T23:44:00.724Z,12.00
2023-05-24T23:46:28.686Z,10.80
2023-05-24T23:48:56.715Z,10.10
2023-05-24T23:51:24.811Z,12.20
2023-05-24T23:53:52.929Z,9.80
2023-05-24T23:56:21.502Z,8.80
2023-05-24T23:58:49.449Z,10.80
